sensor_id;sensor_type;location;lat;lon;timestamp;pressure;altitude;pressure_sealevel;temperature;humidity
24558;BME280;12726;49.148;8.582;2024-03-29T00:00:21;98544.34;;;8.12;64.45
24558;BME280;12726;49.148;8.582;2024-03-29T00:03:06;98557.03;;;8.17;64.21
24558;BME280;12726;49.148;8.582;2024-03-29T00:05:50;98564.91;;;8.23;63.61
24558;BME280;12726;49.148;8.582;2024-03-29T00:08:34;98551.97;;;8.20;63.67
24558;BME280;12726;49.148;8.582;2024-03-29T00:11:18;98544.00;;;8.25;63.08
24558;BME280;12726;49.148;8.582;2024-03-29T00:14:04;98542.59;;;8.35;62.34
24558;BME280;12726;49.148;8.582;2024-03-29T00:16:48;98524.16;;;8.38;62.67
24558;BME280;12726;49.148;8.582;2024-03-29T00:19:32;98506.13;;;8.34;62.30
24558;BME280;12726;49.148;8.582;2024-03-29T00:22:17;98505.28;;;8.33;62.38
24558;BME280;12726;49.148;8.582;2024-03-29T00:25:01;98502.16;;;8.36;61.97
24558;BME280;12726;49.148;8.582;2024-03-29T00:27:45;98490.53;;;8.31;62.15
24558;BME280;12726;49.148;8.582;2024-03-29T00:30:29;98492.88;;;8.44;61.24
24558;BME280;12726;49.148;8.582;2024-03-29T00:33:13;98497.81;;;8.52;60.67
24558;BME280;12726;49.148;8.582;2024-03-29T00:36:00;98507.22;;;8.54;59.79
24558;BME280;12726;49.148;8.582;2024-03-29T00:38:45;98502.38;;;8.51;60.44
24558;BME280;12726;49.148;8.582;2024-03-29T00:41:28;98488.78;;;8.58;59.86
24558;BME280;12726;49.148;8.582;2024-03-29T00:44:13;98500.47;;;8.69;59.64
24558;BME280;12726;49.148;8.582;2024-03-29T00:46:56;98495.50;;;8.77;58.72
24558;BME280;12726;49.148;8.582;2024-03-29T00:49:40;98497.06;;;8.73;59.10
24558;BME280;12726;49.148;8.582;2024-03-29T00:52:25;98486.69;;;8.82;58.45
24558;BME280;12726;49.148;8.582;2024-03-29T00:55:08;98477.41;;;8.89;58.15
24558;BME280;12726;49.148;8.582;2024-03-29T00:57:53;98477.94;;;8.86;58.10
24558;BME280;12726;49.148;8.582;2024-03-29T01:00:36;98457.00;;;8.88;57.50
24558;BME280;12726;49.148;8.582;2024-03-29T01:03:21;98451.63;;;8.88;57.88
24558;BME280;12726;49.148;8.582;2024-03-29T01:06:04;98445.97;;;8.85;57.87
24558;BME280;12726;49.148;8.582;2024-03-29T01:08:49;98439.31;;;8.87;57.53
24558;BME280;12726;49.148;8.582;2024-03-29T01:11:33;98438.94;;;9.00;57.14
24558;BME280;12726;49.148;8.582;2024-03-29T01:14:17;98474.69;;;9.06;56.74
24558;BME280;12726;49.148;8.582;2024-03-29T01:17:00;98465.00;;;9.05;56.77
24558;BME280;12726;49.148;8.582;2024-03-29T01:19:44;98475.50;;;9.07;57.29
24558;BME280;12726;49.148;8.582;2024-03-29T01:22:29;98478.19;;;9.07;56.58
24558;BME280;12726;49.148;8.582;2024-03-29T01:25:13;98467.44;;;9.07;57.02
24558;BME280;12726;49.148;8.582;2024-03-29T01:27:57;98446.59;;;8.92;57.67
24558;BME280;12726;49.148;8.582;2024-03-29T01:30:41;98421.34;;;8.88;58.00
24558;BME280;12726;49.148;8.582;2024-03-29T01:33:26;98422.50;;;8.97;57.61
24558;BME280;12726;49.148;8.582;2024-03-29T01:36:10;98419.00;;;8.96;57.69
24558;BME280;12726;49.148;8.582;2024-03-29T01:38:54;98405.13;;;9.04;57.20
24558;BME280;12726;49.148;8.582;2024-03-29T01:41:39;98403.72;;;8.97;57.56
24558;BME280;12726;49.148;8.582;2024-03-29T01:44:23;98407.19;;;8.97;57.48
24558;BME280;12726;49.148;8.582;2024-03-29T01:47:08;98433.47;;;8.95;57.50
24558;BME280;12726;49.148;8.582;2024-03-29T01:49:53;98428.19;;;9.00;57.07
24558;BME280;12726;49.148;8.582;2024-03-29T01:52:39;98426.56;;;8.99;57.58
24558;BME280;12726;49.148;8.582;2024-03-29T01:55:25;98437.88;;;9.01;57.63
24558;BME280;12726;49.148;8.582;2024-03-29T01:58:11;98428.09;;;8.95;58.17
24558;BME280;12726;49.148;8.582;2024-03-29T02:01:00;98426.00;;;8.97;57.66
24558;BME280;12726;49.148;8.582;2024-03-29T02:03:46;98435.63;;;8.93;58.59
24558;BME280;12726;49.148;8.582;2024-03-29T02:06:32;98431.94;;;8.99;57.70
24558;BME280;12726;49.148;8.582;2024-03-29T02:09:17;98421.75;;;9.01;57.94
24558;BME280;12726;49.148;8.582;2024-03-29T02:12:02;98420.06;;;8.95;58.52
24558;BME280;12726;49.148;8.582;2024-03-29T02:14:48;98420.63;;;8.97;58.48
24558;BME280;12726;49.148;8.582;2024-03-29T02:17:33;98421.44;;;8.98;58.63
24558;BME280;12726;49.148;8.582;2024-03-29T02:20:18;98426.03;;;9.02;58.22
24558;BME280;12726;49.148;8.582;2024-03-29T02:23:07;98452.97;;;9.08;58.24
24558;BME280;12726;49.148;8.582;2024-03-29T02:25:54;98432.84;;;9.10;57.88
24558;BME280;12726;49.148;8.582;2024-03-29T02:28:39;98421.56;;;9.08;58.56
24558;BME280;12726;49.148;8.582;2024-03-29T02:31:24;98424.78;;;9.10;58.72
24558;BME280;12726;49.148;8.582;2024-03-29T02:34:09;98408.06;;;9.03;58.96
24558;BME280;12726;49.148;8.582;2024-03-29T02:36:55;98412.47;;;9.09;58.95
24558;BME280;12726;49.148;8.582;2024-03-29T02:39:40;98426.41;;;9.11;58.71
24558;BME280;12726;49.148;8.582;2024-03-29T02:42:25;98419.75;;;9.14;58.61
24558;BME280;12726;49.148;8.582;2024-03-29T02:45:10;98438.59;;;9.19;58.11
24558;BME280;12726;49.148;8.582;2024-03-29T02:47:55;98430.25;;;9.15;58.76
24558;BME280;12726;49.148;8.582;2024-03-29T02:50:40;98432.34;;;9.13;58.82
24558;BME280;12726;49.148;8.582;2024-03-29T02:53:24;98415.69;;;9.11;58.88
24558;BME280;12726;49.148;8.582;2024-03-29T02:56:09;98435.59;;;9.15;58.73
24558;BME280;12726;49.148;8.582;2024-03-29T02:58:54;98425.69;;;9.16;58.16
24558;BME280;12726;49.148;8.582;2024-03-29T03:01:40;98443.97;;;9.19;58.61
24558;BME280;12726;49.148;8.582;2024-03-29T03:04:24;98448.84;;;9.22;58.72
24558;BME280;12726;49.148;8.582;2024-03-29T03:07:09;98428.97;;;9.23;58.42
24558;BME280;12726;49.148;8.582;2024-03-29T03:10:11;98448.28;;;9.20;58.73
24558;BME280;12726;49.148;8.582;2024-03-29T03:13:14;98445.91;;;9.23;58.35
24558;BME280;12726;49.148;8.582;2024-03-29T03:15:59;98462.34;;;9.32;57.92
24558;BME280;12726;49.148;8.582;2024-03-29T03:18:44;98466.72;;;9.38;57.77
24558;BME280;12726;49.148;8.582;2024-03-29T03:21:29;98465.63;;;9.34;57.88
24558;BME280;12726;49.148;8.582;2024-03-29T03:24:14;98488.47;;;9.36;57.82
24558;BME280;12726;49.148;8.582;2024-03-29T03:26:58;98481.97;;;9.32;60.33
24558;BME280;12726;49.148;8.582;2024-03-29T03:29:43;98503.06;;;9.46;61.60
24558;BME280;12726;49.148;8.582;2024-03-29T03:32:27;98497.22;;;9.27;65.99
24558;BME280;12726;49.148;8.582;2024-03-29T03:35:12;98496.16;;;9.06;67.17
24558;BME280;12726;49.148;8.582;2024-03-29T03:37:56;98496.59;;;8.98;69.15
24558;BME280;12726;49.148;8.582;2024-03-29T03:40:42;98476.13;;;8.92;68.09
24558;BME280;12726;49.148;8.582;2024-03-29T03:43:26;98475.16;;;8.81;70.09
24558;BME280;12726;49.148;8.582;2024-03-29T03:46:11;98473.75;;;8.74;70.86
24558;BME280;12726;49.148;8.582;2024-03-29T03:48:55;98463.97;;;8.68;71.24
24558;BME280;12726;49.148;8.582;2024-03-29T03:51:40;98463.00;;;8.74;69.42
24558;BME280;12726;49.148;8.582;2024-03-29T03:54:27;98450.38;;;8.74;68.72
24558;BME280;12726;49.148;8.582;2024-03-29T03:57:14;98437.97;;;8.68;70.31
24558;BME280;12726;49.148;8.582;2024-03-29T03:59:58;98435.78;;;8.65;69.76
24558;BME280;12726;49.148;8.582;2024-03-29T04:02:47;98427.41;;;8.61;71.45
24558;BME280;12726;49.148;8.582;2024-03-29T04:05:32;98411.81;;;8.58;71.97
24558;BME280;12726;49.148;8.582;2024-03-29T04:08:16;98428.72;;;8.59;71.78
24558;BME280;12726;49.148;8.582;2024-03-29T04:11:03;98408.50;;;8.51;72.03
24558;BME280;12726;49.148;8.582;2024-03-29T04:13:48;98399.53;;;8.62;70.59
24558;BME280;12726;49.148;8.582;2024-03-29T04:16:33;98421.88;;;8.68;68.15
24558;BME280;12726;49.148;8.582;2024-03-29T04:19:17;98418.03;;;8.81;67.55
24558;BME280;12726;49.148;8.582;2024-03-29T04:22:02;98418.69;;;8.93;66.17
24558;BME280;12726;49.148;8.582;2024-03-29T04:24:46;98416.50;;;8.90;67.67
24558;BME280;12726;49.148;8.582;2024-03-29T04:27:31;98400.59;;;8.83;68.26
24558;BME280;12726;49.148;8.582;2024-03-29T04:30:15;98408.25;;;8.75;70.28
24558;BME280;12726;49.148;8.582;2024-03-29T04:33:00;98433.97;;;8.71;72.48
24558;BME280;12726;49.148;8.582;2024-03-29T04:36:04;98440.75;;;8.56;73.95
24558;BME280;12726;49.148;8.582;2024-03-29T04:38:50;98428.47;;;8.60;72.47
24558;BME280;12726;49.148;8.582;2024-03-29T04:41:35;98438.28;;;8.72;70.42
24558;BME280;12726;49.148;8.582;2024-03-29T04:44:24;98441.53;;;8.95;69.34
24558;BME280;12726;49.148;8.582;2024-03-29T04:47:09;98428.81;;;9.08;67.68
24558;BME280;12726;49.148;8.582;2024-03-29T04:49:54;98411.28;;;9.00;68.30
24558;BME280;12726;49.148;8.582;2024-03-29T04:52:39;98397.97;;;8.88;69.66
24558;BME280;12726;49.148;8.582;2024-03-29T04:55:24;98405.66;;;8.80;70.71
24558;BME280;12726;49.148;8.582;2024-03-29T04:58:09;98388.94;;;8.73;71.96
24558;BME280;12726;49.148;8.582;2024-03-29T05:00:54;98386.56;;;8.76;71.07
24558;BME280;12726;49.148;8.582;2024-03-29T05:03:40;98388.81;;;8.84;70.57
24558;BME280;12726;49.148;8.582;2024-03-29T05:06:25;98398.16;;;9.03;69.71
24558;BME280;12726;49.148;8.582;2024-03-29T05:09:10;98393.47;;;9.16;68.53
24558;BME280;12726;49.148;8.582;2024-03-29T05:11:55;98387.53;;;9.14;68.34
24558;BME280;12726;49.148;8.582;2024-03-29T05:14:40;98387.63;;;9.24;67.89
24558;BME280;12726;49.148;8.582;2024-03-29T05:17:25;98378.25;;;9.26;66.75
24558;BME280;12726;49.148;8.582;2024-03-29T05:20:11;98389.38;;;9.35;66.08
24558;BME280;12726;49.148;8.582;2024-03-29T05:22:58;98394.03;;;9.45;65.03
24558;BME280;12726;49.148;8.582;2024-03-29T05:25:43;98390.81;;;9.48;64.53
24558;BME280;12726;49.148;8.582;2024-03-29T05:28:31;98401.69;;;9.58;63.34
24558;BME280;12726;49.148;8.582;2024-03-29T05:31:16;98398.19;;;9.57;62.23
24558;BME280;12726;49.148;8.582;2024-03-29T05:34:02;98411.53;;;9.52;64.37
24558;BME280;12726;49.148;8.582;2024-03-29T05:36:47;98413.94;;;9.49;63.54
24558;BME280;12726;49.148;8.582;2024-03-29T05:39:32;98406.34;;;9.40;63.73
24558;BME280;12726;49.148;8.582;2024-03-29T05:42:17;98420.56;;;9.41;63.81
24558;BME280;12726;49.148;8.582;2024-03-29T05:45:04;98421.19;;;9.48;63.10
24558;BME280;12726;49.148;8.582;2024-03-29T05:47:53;98437.88;;;9.50;62.01
24558;BME280;12726;49.148;8.582;2024-03-29T05:50:39;98426.56;;;9.48;62.09
24558;BME280;12726;49.148;8.582;2024-03-29T05:53:24;98434.03;;;9.46;62.56
24558;BME280;12726;49.148;8.582;2024-03-29T05:56:10;98444.25;;;9.44;62.25
24558;BME280;12726;49.148;8.582;2024-03-29T05:58:55;98438.94;;;9.49;62.30
24558;BME280;12726;49.148;8.582;2024-03-29T06:01:41;98446.13;;;9.43;63.56
24558;BME280;12726;49.148;8.582;2024-03-29T06:04:26;98452.91;;;9.51;61.59
24558;BME280;12726;49.148;8.582;2024-03-29T06:07:16;98466.63;;;9.55;60.90
24558;BME280;12726;49.148;8.582;2024-03-29T06:10:01;98483.31;;;9.57;61.06
24558;BME280;12726;49.148;8.582;2024-03-29T06:12:48;98471.53;;;9.58;61.14
24558;BME280;12726;49.148;8.582;2024-03-29T06:15:34;98475.88;;;9.64;60.77
24558;BME280;12726;49.148;8.582;2024-03-29T06:18:36;98475.75;;;9.80;59.22
24558;BME280;12726;49.148;8.582;2024-03-29T06:21:21;98476.19;;;9.94;58.76
24558;BME280;12726;49.148;8.582;2024-03-29T06:24:08;98465.13;;;9.91;58.85
24558;BME280;12726;49.148;8.582;2024-03-29T06:27:02;98460.44;;;10.08;57.49
24558;BME280;12726;49.148;8.582;2024-03-29T06:29:47;98441.94;;;10.16;56.83
24558;BME280;12726;49.148;8.582;2024-03-29T06:32:32;98441.72;;;10.18;56.17
24558;BME280;12726;49.148;8.582;2024-03-29T06:35:17;98424.81;;;10.23;56.81
24558;BME280;12726;49.148;8.582;2024-03-29T06:38:06;98419.72;;;10.26;56.29
24558;BME280;12726;49.148;8.582;2024-03-29T06:40:50;98427.28;;;10.29;55.70
24558;BME280;12726;49.148;8.582;2024-03-29T06:43:36;98412.22;;;10.28;56.24
24558;BME280;12726;49.148;8.582;2024-03-29T06:46:21;98422.44;;;10.31;55.19
24558;BME280;12726;49.148;8.582;2024-03-29T06:49:06;98431.94;;;10.44;54.65
24558;BME280;12726;49.148;8.582;2024-03-29T06:51:51;98434.34;;;10.45;55.23
24558;BME280;12726;49.148;8.582;2024-03-29T06:54:37;98437.34;;;10.49;55.95
24558;BME280;12726;49.148;8.582;2024-03-29T06:57:22;98439.56;;;10.57;55.89
24558;BME280;12726;49.148;8.582;2024-03-29T07:00:10;98442.28;;;10.62;55.23
24558;BME280;12726;49.148;8.582;2024-03-29T07:02:55;98449.56;;;10.67;55.59
24558;BME280;12726;49.148;8.582;2024-03-29T07:05:41;98445.53;;;10.69;56.66
24558;BME280;12726;49.148;8.582;2024-03-29T07:08:26;98447.16;;;10.65;57.86
24558;BME280;12726;49.148;8.582;2024-03-29T07:11:11;98435.53;;;10.59;58.94
24558;BME280;12726;49.148;8.582;2024-03-29T07:13:56;98448.72;;;10.61;58.02
24558;BME280;12726;49.148;8.582;2024-03-29T07:16:42;98459.25;;;10.68;59.00
24558;BME280;12726;49.148;8.582;2024-03-29T07:19:27;98459.03;;;10.74;60.13
24558;BME280;12726;49.148;8.582;2024-03-29T07:22:12;98475.97;;;10.75;62.10
24558;BME280;12726;49.148;8.582;2024-03-29T07:24:57;98478.34;;;10.66;63.57
24558;BME280;12726;49.148;8.582;2024-03-29T07:27:43;98488.75;;;10.52;65.96
24558;BME280;12726;49.148;8.582;2024-03-29T07:30:28;98498.34;;;10.38;67.80
24558;BME280;12726;49.148;8.582;2024-03-29T07:33:13;98498.22;;;10.23;70.20
24558;BME280;12726;49.148;8.582;2024-03-29T07:35:59;98499.16;;;10.12;71.63
24558;BME280;12726;49.148;8.582;2024-03-29T07:38:44;98488.03;;;9.98;73.82
24558;BME280;12726;49.148;8.582;2024-03-29T07:41:29;98507.84;;;9.87;77.33
24558;BME280;12726;49.148;8.582;2024-03-29T07:44:14;98504.78;;;9.78;79.46
24558;BME280;12726;49.148;8.582;2024-03-29T07:46:59;98505.47;;;9.69;80.56
24558;BME280;12726;49.148;8.582;2024-03-29T07:49:47;98498.78;;;9.45;85.27
24558;BME280;12726;49.148;8.582;2024-03-29T07:52:33;98500.09;;;9.20;89.17
24558;BME280;12726;49.148;8.582;2024-03-29T07:55:18;98492.16;;;9.09;91.00
24558;BME280;12726;49.148;8.582;2024-03-29T07:58:03;98509.00;;;9.04;93.94
24558;BME280;12726;49.148;8.582;2024-03-29T08:00:49;98519.69;;;8.99;96.50
24558;BME280;12726;49.148;8.582;2024-03-29T08:03:34;98512.63;;;8.93;99.61
24558;BME280;12726;49.148;8.582;2024-03-29T08:06:20;98523.03;;;8.89;100.00
24558;BME280;12726;49.148;8.582;2024-03-29T08:09:06;98525.06;;;8.82;100.00
24558;BME280;12726;49.148;8.582;2024-03-29T08:11:53;98530.38;;;8.77;100.00
24558;BME280;12726;49.148;8.582;2024-03-29T08:14:39;98533.72;;;8.68;100.00
24558;BME280;12726;49.148;8.582;2024-03-29T08:17:24;98537.22;;;8.68;100.00
24558;BME280;12726;49.148;8.582;2024-03-29T08:20:09;98547.41;;;8.66;100.00
24558;BME280;12726;49.148;8.582;2024-03-29T08:22:57;98548.94;;;8.62;100.00
24558;BME280;12726;49.148;8.582;2024-03-29T08:25:42;98549.34;;;8.71;100.00
24558;BME280;12726;49.148;8.582;2024-03-29T08:28:28;98553.41;;;8.73;100.00
24558;BME280;12726;49.148;8.582;2024-03-29T08:31:13;98559.97;;;8.82;100.00
24558;BME280;12726;49.148;8.582;2024-03-29T08:33:58;98559.41;;;8.80;100.00
24558;BME280;12726;49.148;8.582;2024-03-29T08:36:45;98566.47;;;8.86;100.00
24558;BME280;12726;49.148;8.582;2024-03-29T08:39:31;98565.97;;;8.89;100.00
24558;BME280;12726;49.148;8.582;2024-03-29T08:42:16;98571.91;;;8.91;100.00
24558;BME280;12726;49.148;8.582;2024-03-29T08:45:01;98576.03;;;8.99;100.00
24558;BME280;12726;49.148;8.582;2024-03-29T08:47:47;98589.78;;;9.02;100.00
24558;BME280;12726;49.148;8.582;2024-03-29T08:50:32;98595.72;;;9.04;100.00
24558;BME280;12726;49.148;8.582;2024-03-29T08:53:17;98594.50;;;8.95;100.00
24558;BME280;12726;49.148;8.582;2024-03-29T08:56:02;98600.13;;;8.94;100.00
24558;BME280;12726;49.148;8.582;2024-03-29T08:58:47;98606.22;;;8.89;100.00
24558;BME280;12726;49.148;8.582;2024-03-29T09:01:32;98609.41;;;8.86;100.00
24558;BME280;12726;49.148;8.582;2024-03-29T09:04:18;98619.63;;;8.89;100.00
24558;BME280;12726;49.148;8.582;2024-03-29T09:07:03;98623.63;;;9.03;100.00
24558;BME280;12726;49.148;8.582;2024-03-29T09:09:49;98628.00;;;9.10;100.00
24558;BME280;12726;49.148;8.582;2024-03-29T09:12:35;98623.34;;;9.22;100.00
24558;BME280;12726;49.148;8.582;2024-03-29T09:15:20;98619.84;;;9.21;100.00
24558;BME280;12726;49.148;8.582;2024-03-29T09:18:05;98614.31;;;9.28;100.00
24558;BME280;12726;49.148;8.582;2024-03-29T09:21:00;98618.31;;;9.91;100.00
24558;BME280;12726;49.148;8.582;2024-03-29T09:23:46;98620.34;;;9.78;100.00
24558;BME280;12726;49.148;8.582;2024-03-29T09:26:32;98647.75;;;9.80;100.00
24558;BME280;12726;49.148;8.582;2024-03-29T09:29:18;98659.66;;;9.85;100.00
24558;BME280;12726;49.148;8.582;2024-03-29T09:32:04;98669.09;;;9.87;100.00
24558;BME280;12726;49.148;8.582;2024-03-29T09:34:50;98671.50;;;9.89;100.00
24558;BME280;12726;49.148;8.582;2024-03-29T09:37:35;98687.84;;;10.04;100.00
24558;BME280;12726;49.148;8.582;2024-03-29T09:40:21;98680.38;;;10.11;100.00
24558;BME280;12726;49.148;8.582;2024-03-29T09:43:08;98671.47;;;10.27;100.00
24558;BME280;12726;49.148;8.582;2024-03-29T09:45:55;98657.44;;;10.52;100.00
24558;BME280;12726;49.148;8.582;2024-03-29T09:48:41;98654.75;;;10.79;100.00
24558;BME280;12726;49.148;8.582;2024-03-29T09:51:27;98656.09;;;11.13;100.00
24558;BME280;12726;49.148;8.582;2024-03-29T09:54:12;98659.97;;;11.27;100.00
24558;BME280;12726;49.148;8.582;2024-03-29T09:57:00;98657.16;;;11.12;100.00
24558;BME280;12726;49.148;8.582;2024-03-29T09:59:45;98663.13;;;10.82;100.00
24558;BME280;12726;49.148;8.582;2024-03-29T10:02:31;98647.81;;;10.88;100.00
24558;BME280;12726;49.148;8.582;2024-03-29T10:05:17;98659.50;;;11.04;100.00
24558;BME280;12726;49.148;8.582;2024-03-29T10:08:04;98655.66;;;11.31;100.00
24558;BME280;12726;49.148;8.582;2024-03-29T10:10:51;98655.41;;;11.33;100.00
24558;BME280;12726;49.148;8.582;2024-03-29T10:13:36;98648.00;;;11.50;100.00
24558;BME280;12726;49.148;8.582;2024-03-29T10:16:22;98646.00;;;11.77;100.00
24558;BME280;12726;49.148;8.582;2024-03-29T10:19:08;98641.50;;;12.03;100.00
24558;BME280;12726;49.148;8.582;2024-03-29T10:22:05;98642.09;;;12.26;100.00
24558;BME280;12726;49.148;8.582;2024-03-29T10:24:50;98644.31;;;12.49;100.00
24558;BME280;12726;49.148;8.582;2024-03-29T10:27:35;98635.97;;;12.61;100.00
24558;BME280;12726;49.148;8.582;2024-03-29T10:30:20;98614.38;;;12.76;100.00
24558;BME280;12726;49.148;8.582;2024-03-29T10:33:05;98616.78;;;12.87;100.00
24558;BME280;12726;49.148;8.582;2024-03-29T10:35:50;98615.19;;;13.07;100.00
24558;BME280;12726;49.148;8.582;2024-03-29T10:38:35;98601.94;;;13.00;100.00
24558;BME280;12726;49.148;8.582;2024-03-29T10:41:21;98600.84;;;13.06;100.00
24558;BME280;12726;49.148;8.582;2024-03-29T10:44:11;98598.69;;;13.03;100.00
24558;BME280;12726;49.148;8.582;2024-03-29T10:46:57;98587.06;;;13.03;100.00
24558;BME280;12726;49.148;8.582;2024-03-29T10:49:43;98581.94;;;13.21;100.00
24558;BME280;12726;49.148;8.582;2024-03-29T10:52:28;98579.09;;;13.62;100.00
24558;BME280;12726;49.148;8.582;2024-03-29T10:55:13;98574.94;;;14.34;100.00
24558;BME280;12726;49.148;8.582;2024-03-29T10:58:00;98571.75;;;14.95;100.00
24558;BME280;12726;49.148;8.582;2024-03-29T11:00:47;98566.69;;;15.41;100.00
24558;BME280;12726;49.148;8.582;2024-03-29T11:06:27;98537.28;;;16.98;99.36
24558;BME280;12726;49.148;8.582;2024-03-29T11:09:14;98537.63;;;16.91;99.12
24558;BME280;12726;49.148;8.582;2024-03-29T11:12:01;98542.66;;;17.71;94.88
24558;BME280;12726;49.148;8.582;2024-03-29T11:17:22;98544.28;;;18.44;88.25
24558;BME280;12726;49.148;8.582;2024-03-29T11:20:07;98553.16;;;18.14;87.39
24558;BME280;12726;49.148;8.582;2024-03-29T11:22:54;98545.59;;;17.61;90.01
24558;BME280;12726;49.148;8.582;2024-03-29T11:25:44;98535.28;;;17.17;94.90
24558;BME280;12726;49.148;8.582;2024-03-29T11:28:31;98537.09;;;17.35;97.58
24558;BME280;12726;49.148;8.582;2024-03-29T11:31:17;98544.94;;;17.09;93.68
24558;BME280;12726;49.148;8.582;2024-03-29T11:34:08;98542.19;;;16.63;94.34
24558;BME280;12726;49.148;8.582;2024-03-29T11:36:54;98533.53;;;16.42;96.76
24558;BME280;12726;49.148;8.582;2024-03-29T11:39:39;98557.25;;;15.99;97.28
24558;BME280;12726;49.148;8.582;2024-03-29T11:42:44;98558.91;;;15.58;100.00
24558;BME280;12726;49.148;8.582;2024-03-29T11:45:30;98555.03;;;15.40;100.00
24558;BME280;12726;49.148;8.582;2024-03-29T11:48:23;98569.75;;;15.05;100.00
24558;BME280;12726;49.148;8.582;2024-03-29T11:51:14;98575.34;;;14.85;100.00
24558;BME280;12726;49.148;8.582;2024-03-29T11:54:00;98581.47;;;14.67;100.00
24558;BME280;12726;49.148;8.582;2024-03-29T11:56:47;98588.78;;;14.66;100.00
24558;BME280;12726;49.148;8.582;2024-03-29T11:59:32;98600.91;;;14.35;100.00
24558;BME280;12726;49.148;8.582;2024-03-29T12:02:17;98592.63;;;14.16;100.00
24558;BME280;12726;49.148;8.582;2024-03-29T12:05:09;98588.38;;;14.05;100.00
24558;BME280;12726;49.148;8.582;2024-03-29T12:07:54;98593.50;;;14.06;100.00
24558;BME280;12726;49.148;8.582;2024-03-29T12:10:39;98586.78;;;13.94;100.00
24558;BME280;12726;49.148;8.582;2024-03-29T12:13:24;98593.81;;;13.95;100.00
24558;BME280;12726;49.148;8.582;2024-03-29T12:16:09;98594.38;;;13.97;100.00
24558;BME280;12726;49.148;8.582;2024-03-29T12:18:54;98607.06;;;14.01;100.00
24558;BME280;12726;49.148;8.582;2024-03-29T12:21:39;98606.22;;;14.06;100.00
24558;BME280;12726;49.148;8.582;2024-03-29T12:24:24;98610.53;;;14.12;100.00
24558;BME280;12726;49.148;8.582;2024-03-29T12:27:09;98614.59;;;14.09;100.00
24558;BME280;12726;49.148;8.582;2024-03-29T12:29:55;98620.56;;;14.06;100.00
24558;BME280;12726;49.148;8.582;2024-03-29T12:32:41;98616.22;;;14.10;100.00
24558;BME280;12726;49.148;8.582;2024-03-29T12:35:27;98607.28;;;14.10;100.00
24558;BME280;12726;49.148;8.582;2024-03-29T12:38:12;98618.88;;;14.16;100.00
24558;BME280;12726;49.148;8.582;2024-03-29T12:40:58;98633.53;;;14.09;100.00
24558;BME280;12726;49.148;8.582;2024-03-29T12:43:43;98615.94;;;14.12;100.00
24558;BME280;12726;49.148;8.582;2024-03-29T12:46:28;98619.41;;;14.18;100.00
24558;BME280;12726;49.148;8.582;2024-03-29T12:49:13;98617.69;;;14.42;100.00
24558;BME280;12726;49.148;8.582;2024-03-29T12:51:58;98640.41;;;14.46;100.00
24558;BME280;12726;49.148;8.582;2024-03-29T12:54:43;98633.84;;;14.91;100.00
24558;BME280;12726;49.148;8.582;2024-03-29T12:57:29;98642.00;;;15.44;100.00
24558;BME280;12726;49.148;8.582;2024-03-29T13:00:14;98652.16;;;15.04;100.00
24558;BME280;12726;49.148;8.582;2024-03-29T13:03:00;98654.56;;;14.77;100.00
24558;BME280;12726;49.148;8.582;2024-03-29T13:05:46;98660.38;;;14.55;100.00
24558;BME280;12726;49.148;8.582;2024-03-29T13:08:31;98653.94;;;14.46;100.00
24558;BME280;12726;49.148;8.582;2024-03-29T13:11:16;98648.53;;;14.36;100.00
24558;BME280;12726;49.148;8.582;2024-03-29T13:14:01;98641.59;;;14.20;100.00
24558;BME280;12726;49.148;8.582;2024-03-29T13:16:46;98653.81;;;14.12;100.00
24558;BME280;12726;49.148;8.582;2024-03-29T13:19:31;98622.94;;;14.18;100.00
24558;BME280;12726;49.148;8.582;2024-03-29T13:22:17;98649.78;;;14.04;100.00
24558;BME280;12726;49.148;8.582;2024-03-29T13:25:03;98621.16;;;13.93;100.00
24558;BME280;12726;49.148;8.582;2024-03-29T13:27:50;98647.13;;;13.94;100.00
24558;BME280;12726;49.148;8.582;2024-03-29T13:30:37;98667.47;;;13.82;100.00
24558;BME280;12726;49.148;8.582;2024-03-29T13:33:27;98644.25;;;13.70;100.00
24558;BME280;12726;49.148;8.582;2024-03-29T13:36:12;98651.28;;;13.66;100.00
24558;BME280;12726;49.148;8.582;2024-03-29T13:38:57;98676.69;;;13.65;100.00
24558;BME280;12726;49.148;8.582;2024-03-29T13:41:42;98658.38;;;13.47;100.00
24558;BME280;12726;49.148;8.582;2024-03-29T13:44:27;98637.31;;;13.24;100.00
24558;BME280;12726;49.148;8.582;2024-03-29T13:47:12;98635.97;;;13.16;100.00
24558;BME280;12726;49.148;8.582;2024-03-29T13:49:59;98656.22;;;13.39;100.00
24558;BME280;12726;49.148;8.582;2024-03-29T13:52:45;98665.13;;;13.45;100.00
24558;BME280;12726;49.148;8.582;2024-03-29T13:55:30;98677.81;;;13.54;100.00
24558;BME280;12726;49.148;8.582;2024-03-29T13:58:15;98688.38;;;13.41;100.00
24558;BME280;12726;49.148;8.582;2024-03-29T14:01:00;98704.34;;;13.17;100.00
24558;BME280;12726;49.148;8.582;2024-03-29T14:03:45;98705.13;;;12.97;100.00
24558;BME280;12726;49.148;8.582;2024-03-29T14:06:31;98701.59;;;12.71;100.00
24558;BME280;12726;49.148;8.582;2024-03-29T14:09:16;98711.03;;;12.74;100.00
24558;BME280;12726;49.148;8.582;2024-03-29T14:12:02;98696.47;;;12.70;100.00
24558;BME280;12726;49.148;8.582;2024-03-29T14:14:48;98679.69;;;12.73;100.00
24558;BME280;12726;49.148;8.582;2024-03-29T14:17:34;98675.94;;;12.74;100.00
24558;BME280;12726;49.148;8.582;2024-03-29T14:20:20;98668.38;;;12.76;100.00
24558;BME280;12726;49.148;8.582;2024-03-29T14:23:05;98668.38;;;12.76;100.00
24558;BME280;12726;49.148;8.582;2024-03-29T14:25:51;98664.34;;;12.78;100.00
24558;BME280;12726;49.148;8.582;2024-03-29T14:28:37;98661.88;;;12.87;100.00
24558;BME280;12726;49.148;8.582;2024-03-29T14:31:22;98664.59;;;13.02;100.00
24558;BME280;12726;49.148;8.582;2024-03-29T14:34:07;98664.59;;;13.22;100.00
24558;BME280;12726;49.148;8.582;2024-03-29T14:36:52;98667.56;;;13.36;100.00
24558;BME280;12726;49.148;8.582;2024-03-29T14:39:37;98672.72;;;13.43;100.00
24558;BME280;12726;49.148;8.582;2024-03-29T14:42:23;98673.78;;;13.42;100.00
24558;BME280;12726;49.148;8.582;2024-03-29T14:45:09;98668.38;;;13.47;100.00